createdAt,value
2018-07-06T00:00:44.767Z,101193.94
2018-07-06T00:03:31.396Z,101197.64
2018-07-06T00:06:17.866Z,101204.77
2018-07-06T00:09:05.140Z,101202.59
2018-07-06T00:11:51.495Z,101200.52
2018-07-06T00:14:37.966Z,101198.06
2018-07-06T00:17:18.474Z,101195.86
2018-07-06T00:20:06.054Z,101195.41
2018-07-06T00:22:46.576Z,101202.15
2018-07-06T00:25:33.028Z,101199.21
2018-07-06T00:28:13.398Z,101193.31
2018-07-06T00:30:54.083Z,101201.59
2018-07-06T00:33:40.383Z,101197.92
2018-07-06T00:36:26.956Z,101187.43
2018-07-06T00:39:07.437Z,101187.49
2018-07-06T00:41:47.924Z,101187.80
2018-07-06T00:44:34.421Z,101191.66
2018-07-06T00:47:20.845Z,101192.95
2018-07-06T00:50:07.262Z,101191.63
2018-07-06T00:52:53.577Z,101194.20
2018-07-06T00:55:39.878Z,101194.62
2018-07-06T00:58:26.238Z,101196.75
2018-07-06T01:01:12.617Z,101198.37
2018-07-06T01:03:52.996Z,101196.30
2018-07-06T01:06:40.508Z,101195.46
2018-07-06T01:09:21.031Z,101199.66
2018-07-06T01:12:13.080Z,101205.56
2018-07-06T01:15:02.269Z,101202.63
2018-07-06T01:17:42.872Z,101204.70
2018-07-06T01:20:29.652Z,101201.33
2018-07-06T01:23:10.092Z,101205.14
2018-07-06T01:25:56.534Z,101211.38
2018-07-06T01:28:43.010Z,101207.70
2018-07-06T01:31:23.624Z,101213.45
2018-07-06T01:34:10.157Z,101226.48
2018-07-06T01:36:57.070Z,101221.02
2018-07-06T01:39:43.519Z,101225.67
2018-07-06T01:42:30.138Z,101221.45
2018-07-06T01:45:16.882Z,101221.45
2018-07-06T01:48:03.511Z,101226.95
2018-07-06T01:50:50.057Z,101216.86
2018-07-06T01:53:36.621Z,101218.53
2018-07-06T01:56:23.067Z,101226.98
2018-07-06T01:59:09.813Z,101227.44
2018-07-06T02:01:56.195Z,101224.12
2018-07-06T02:04:42.757Z,101222.45
2018-07-06T02:07:29.293Z,101230.83
2018-07-06T02:10:15.816Z,101231.27
2018-07-06T02:13:02.402Z,101224.98
2018-07-06T02:15:49.056Z,101230.45
2018-07-06T02:18:29.478Z,101232.48
2018-07-06T02:21:15.837Z,101237.56
2018-07-06T02:24:02.671Z,101240.87
2018-07-06T02:26:42.959Z,101247.23
2018-07-06T02:29:29.877Z,101240.08
2018-07-06T02:32:16.602Z,101233.32
2018-07-06T02:35:03.165Z,101237.98
2018-07-06T02:37:49.637Z,101238.39
2018-07-06T02:40:36.135Z,101242.58
2018-07-06T02:43:22.506Z,101239.69
2018-07-06T02:46:08.997Z,101243.38
2018-07-06T02:48:56.029Z,101239.63
2018-07-06T02:51:42.618Z,101242.17
2018-07-06T02:54:28.930Z,101241.75
2018-07-06T02:57:15.258Z,101242.98
2018-07-06T03:00:01.750Z,101244.71
2018-07-06T03:02:48.262Z,101251.03
2018-07-06T03:05:34.745Z,101251.47
2018-07-06T03:08:21.072Z,101249.39
2018-07-06T03:11:07.526Z,101251.09
2018-07-06T03:13:48.092Z,101251.11
2018-07-06T03:16:28.521Z,101256.15
2018-07-06T03:19:14.923Z,101256.98
2018-07-06T03:22:02.506Z,101259.95
2018-07-06T03:24:49.221Z,101257.50
2018-07-06T03:27:35.734Z,101259.61
2018-07-06T03:30:22.353Z,101259.23
2018-07-06T03:33:09.036Z,101263.44
2018-07-06T03:35:55.487Z,101264.68
2018-07-06T03:38:45.957Z,101259.25
2018-07-06T03:41:32.542Z,101266.36
2018-07-06T03:44:19.564Z,101272.24
2018-07-06T03:47:06.101Z,101273.48
2018-07-06T03:49:52.491Z,101282.30
2018-07-06T03:52:38.887Z,101278.52
2018-07-06T03:55:26.049Z,101271.83
2018-07-06T03:58:12.654Z,101271.37
2018-07-06T04:00:59.475Z,101275.20
2018-07-06T04:03:46.144Z,101279.84
2018-07-06T04:06:33.474Z,101281.09
2018-07-06T04:09:20.323Z,101281.09
2018-07-06T04:12:06.697Z,101284.02
2018-07-06T04:14:53.088Z,101278.57
2018-07-06T04:17:39.701Z,101280.63
2018-07-06T04:20:26.471Z,101286.14
2018-07-06T04:23:07.761Z,101281.97
2018-07-06T04:25:54.508Z,101279.44
2018-07-06T04:28:41.135Z,101286.55
2018-07-06T04:31:27.743Z,101282.37
2018-07-06T04:34:15.437Z,101278.22
2018-07-06T04:37:02.049Z,101279.84
2018-07-06T04:39:48.689Z,101281.52
2018-07-06T04:42:35.397Z,101286.55
2018-07-06T04:45:21.892Z,101292.41
2018-07-06T04:48:08.352Z,101290.77
2018-07-06T04:50:54.682Z,101296.61
2018-07-06T04:53:41.501Z,101300.38
2018-07-06T04:56:27.906Z,101296.19
2018-07-06T04:59:14.538Z,101299.05
2018-07-06T05:02:00.990Z,101297.00
2018-07-06T05:04:47.514Z,101293.23
2018-07-06T05:07:33.914Z,101296.14
2018-07-06T05:10:20.244Z,101292.36
2018-07-06T05:13:08.819Z,101290.25
2018-07-06T05:15:55.482Z,101295.72
2018-07-06T05:18:42.339Z,101293.20
2018-07-06T05:21:29.506Z,101298.21
2018-07-06T05:24:16.163Z,101301.58
2018-07-06T05:27:02.740Z,101308.26
2018-07-06T05:29:49.126Z,101306.98
2018-07-06T05:32:35.745Z,101305.33
2018-07-06T05:35:22.338Z,101307.44
2018-07-06T05:38:09.047Z,101307.84
2018-07-06T05:40:55.673Z,101311.19
2018-07-06T05:43:42.154Z,101315.37
2018-07-06T05:46:28.469Z,101317.50
2018-07-06T05:49:14.775Z,101312.03
2018-07-06T05:52:01.889Z,101318.29
2018-07-06T05:54:48.370Z,101317.09
2018-07-06T05:57:34.890Z,101317.46
2018-07-06T06:00:21.604Z,101322.93
2018-07-06T06:03:08.044Z,101327.10
2018-07-06T06:05:54.933Z,101332.54
2018-07-06T06:08:22.741Z,101333.83
2018-07-06T06:10:52.769Z,101338.02
2018-07-06T06:13:23.181Z,101335.10
2018-07-06T06:15:54.821Z,101338.39
2018-07-06T06:18:25.055Z,101335.47
2018-07-06T06:20:55.766Z,101350.57
2018-07-06T06:23:27.043Z,101344.66
2018-07-06T06:25:56.548Z,101348.05
2018-07-06T06:28:26.017Z,101342.16
2018-07-06T06:30:57.405Z,101350.98
2018-07-06T06:33:27.167Z,101350.97
2018-07-06T06:35:56.992Z,101350.16
2018-07-06T06:38:26.629Z,101351.80
2018-07-06T06:40:56.557Z,101353.05
2018-07-06T06:43:26.169Z,101353.05
2018-07-06T06:45:55.805Z,101355.98
2018-07-06T06:48:25.566Z,101354.70
2018-07-06T06:50:55.211Z,101350.47
2018-07-06T06:53:24.983Z,101355.51
2018-07-06T06:55:55.518Z,101362.62
2018-07-06T06:58:25.370Z,101363.88
2018-07-06T07:00:55.080Z,101372.33
2018-07-06T07:03:24.947Z,101367.31
2018-07-06T07:05:54.754Z,101377.38
2018-07-06T07:08:24.417Z,101371.48
2018-07-06T07:10:53.952Z,101373.14
2018-07-06T07:13:24.522Z,101378.59
2018-07-06T07:15:54.372Z,101381.94
2018-07-06T07:18:23.962Z,101378.98
2018-07-06T07:20:54.036Z,101376.03
2018-07-06T07:23:23.670Z,101382.34
2018-07-06T07:25:53.488Z,101382.25
2018-07-06T07:28:24.602Z,101375.13
2018-07-06T07:30:55.341Z,101381.80
2018-07-06T07:33:24.828Z,101380.51
2018-07-06T07:35:55.177Z,101383.02
2018-07-06T07:38:24.692Z,101382.58
2018-07-06T07:40:54.402Z,101379.23
2018-07-06T07:43:23.958Z,101375.81
2018-07-06T07:45:53.904Z,101378.73
2018-07-06T07:48:23.469Z,101382.08
2018-07-06T07:51:10.030Z,101378.29
2018-07-06T07:53:56.330Z,101375.84
2018-07-06T07:56:26.423Z,101377.47
2018-07-06T07:58:56.600Z,101375.24
2018-07-06T08:01:26.191Z,101379.37
2018-07-06T08:03:56.224Z,101381.50
2018-07-06T08:06:25.782Z,101375.57
2018-07-06T08:08:55.406Z,101374.30
2018-07-06T08:11:25.525Z,101380.67
2018-07-06T08:13:55.624Z,101373.22
2018-07-06T08:16:25.016Z,101376.97
2018-07-06T08:18:54.640Z,101379.00
2018-07-06T08:21:24.330Z,101383.53
2018-07-06T08:23:53.781Z,101386.92
2018-07-06T08:26:23.430Z,101383.00
2018-07-06T08:28:53.553Z,101392.42
2018-07-06T08:31:23.071Z,101385.59
2018-07-06T08:34:09.523Z,101386.71
2018-07-06T08:38:07.255Z,101391.57
2018-07-06T08:40:36.453Z,101372.45
2018-07-06T08:43:06.874Z,101394.28
2018-07-06T08:45:36.801Z,101383.17
2018-07-06T08:48:06.285Z,101391.17
2018-07-06T08:50:35.770Z,101383.98
2018-07-06T08:53:05.218Z,101387.67
2018-07-06T08:55:35.141Z,101395.34
2018-07-06T08:58:04.635Z,101391.38
2018-07-06T09:00:34.050Z,101395.38
2018-07-06T09:03:03.837Z,101391.86
2018-07-06T09:05:33.345Z,101411.19
2018-07-06T09:08:02.927Z,101404.81
2018-07-06T09:10:32.428Z,101407.91
2018-07-06T09:13:02.257Z,101403.61
2018-07-06T09:15:31.669Z,101403.66
2018-07-06T09:18:01.783Z,101400.93
2018-07-06T09:20:31.336Z,101400.88
2018-07-06T09:23:00.882Z,101413.04
2018-07-06T09:25:30.528Z,101414.59
2018-07-06T09:27:59.925Z,101409.02
2018-07-06T09:30:29.404Z,101429.92
2018-07-06T09:32:58.818Z,101413.77
2018-07-06T09:35:28.362Z,101418.57
2018-07-06T09:37:57.821Z,101415.81
2018-07-06T09:40:27.307Z,101405.81
2018-07-06T09:42:57.466Z,101403.69
2018-07-06T09:45:27.046Z,101407.64
2018-07-06T09:47:56.589Z,101401.16
2018-07-06T09:50:26.040Z,101412.66
2018-07-06T09:52:55.722Z,101414.17
2018-07-06T09:55:25.186Z,101410.59
2018-07-06T09:57:54.758Z,101407.44
2018-07-06T10:00:29.461Z,101410.83
2018-07-06T10:02:58.905Z,101423.36
2018-07-06T10:05:29.318Z,101420.88
2018-07-06T10:07:58.870Z,101420.89
2018-07-06T10:10:29.035Z,101413.30
2018-07-06T10:12:58.212Z,101418.36
2018-07-06T10:15:27.677Z,101426.97
2018-07-06T10:17:58.246Z,101412.63
2018-07-06T10:20:27.705Z,101424.30
2018-07-06T10:22:57.150Z,101421.97
2018-07-06T10:25:26.759Z,101425.81
2018-07-06T10:29:10.925Z,101428.30
2018-07-06T10:31:56.241Z,101432.88
2018-07-06T10:34:25.617Z,101430.43
2018-07-06T10:36:56.067Z,101432.34
2018-07-06T10:39:26.193Z,101435.20
2018-07-06T10:41:55.831Z,101427.52
2018-07-06T10:44:25.375Z,101430.91
2018-07-06T10:46:54.866Z,101433.85
2018-07-06T10:49:25.393Z,101431.62
2018-07-06T10:51:54.892Z,101434.52
2018-07-06T10:54:24.452Z,101430.89
2018-07-06T10:56:53.829Z,101425.70
2018-07-06T10:59:24.187Z,101436.14
2018-07-06T11:01:53.885Z,101430.81
2018-07-06T11:04:23.041Z,101430.37
2018-07-06T11:06:52.546Z,101426.37
2018-07-06T11:09:22.119Z,101446.42
2018-07-06T11:11:51.774Z,101439.53
2018-07-06T11:14:21.512Z,101442.47
2018-07-06T11:16:51.113Z,101444.10
2018-07-06T11:19:20.712Z,101442.83
2018-07-06T11:21:50.418Z,101452.54
2018-07-06T11:24:19.920Z,101452.21
2018-07-06T11:26:50.648Z,101468.28
2018-07-06T11:29:20.657Z,101461.34
2018-07-06T11:31:50.179Z,101463.59
2018-07-06T11:34:19.900Z,101466.98
2018-07-06T11:36:50.509Z,101463.38
2018-07-06T11:39:22.566Z,101464.56
2018-07-06T11:41:53.118Z,101464.09
2018-07-06T11:44:26.016Z,101461.52
2018-07-06T11:46:55.480Z,101477.70
2018-07-06T11:49:25.180Z,101485.10
2018-07-06T11:51:55.260Z,101478.13
2018-07-06T11:54:24.749Z,101479.62
2018-07-06T11:56:54.254Z,101485.45
2018-07-06T11:59:23.638Z,101474.17
2018-07-06T12:01:53.221Z,101486.94
2018-07-06T12:04:23.067Z,101492.48
2018-07-06T12:06:52.630Z,101495.42
2018-07-06T12:09:22.819Z,101494.86
2018-07-06T12:11:52.411Z,101493.64
2018-07-06T12:14:21.921Z,101495.05
2018-07-06T12:16:51.674Z,101488.00
2018-07-06T12:19:21.754Z,101489.76
2018-07-06T12:21:51.263Z,101496.70
2018-07-06T12:24:20.866Z,101494.66
2018-07-06T12:26:50.447Z,101481.48
2018-07-06T12:29:19.927Z,101477.09
2018-07-06T12:31:49.205Z,101491.48
2018-07-06T12:34:18.764Z,101479.60
2018-07-06T12:36:48.365Z,101496.88
2018-07-06T12:39:17.789Z,101491.35
2018-07-06T12:41:47.301Z,101496.55
2018-07-06T12:44:17.097Z,101489.66
2018-07-06T12:46:46.618Z,101488.31
2018-07-06T12:49:16.082Z,101502.38
2018-07-06T12:51:45.358Z,101498.27
2018-07-06T12:54:15.030Z,101501.42
2018-07-06T12:56:45.206Z,101493.09
2018-07-06T12:59:14.758Z,101499.27
2018-07-06T13:01:44.281Z,101500.75
2018-07-06T13:04:13.997Z,101496.18
2018-07-06T13:06:44.814Z,101495.88
2018-07-06T13:09:14.326Z,101515.59
2018-07-06T13:11:43.921Z,101507.41
2018-07-06T13:14:13.429Z,101512.29
2018-07-06T13:16:42.983Z,101519.44
2018-07-06T13:19:12.868Z,101500.48
2018-07-06T13:21:42.405Z,101505.86
2018-07-06T13:24:11.980Z,101498.11
2018-07-06T13:26:41.527Z,101496.60
2018-07-06T13:29:11.013Z,101507.11
2018-07-06T13:31:40.538Z,101507.23
2018-07-06T13:34:10.283Z,101511.00
2018-07-06T13:36:39.929Z,101510.76
2018-07-06T13:39:09.576Z,101506.34
2018-07-06T13:41:40.967Z,101517.31
2018-07-06T13:44:10.484Z,101527.65
2018-07-06T13:46:40.404Z,101517.90
2018-07-06T13:49:09.964Z,101524.90
2018-07-06T13:51:39.198Z,101531.34
2018-07-06T13:54:09.367Z,101531.73
2018-07-06T13:56:38.827Z,101527.53
2018-07-06T13:59:08.445Z,101537.30
2018-07-06T14:01:38.046Z,101539.18
2018-07-06T14:04:07.548Z,101543.71
2018-07-06T14:06:36.977Z,101538.65
2018-07-06T14:09:07.520Z,101547.20
2018-07-06T14:11:37.105Z,101550.17
2018-07-06T14:14:06.710Z,101546.44
2018-07-06T14:16:36.125Z,101548.73
2018-07-06T14:19:05.649Z,101554.94
2018-07-06T14:21:35.254Z,101553.84
2018-07-06T14:24:04.842Z,101546.76
2018-07-06T14:26:35.301Z,101566.58
2018-07-06T14:29:04.893Z,101558.59
2018-07-06T14:31:34.507Z,101552.25
2018-07-06T14:34:04.137Z,101564.17
2018-07-06T14:36:33.824Z,101560.91
2018-07-06T14:39:03.359Z,101563.44
2018-07-06T14:41:32.918Z,101568.23
2018-07-06T14:44:02.481Z,101560.06
2018-07-06T14:46:33.306Z,101569.13
2018-07-06T14:49:03.080Z,101572.70
2018-07-06T14:51:32.685Z,101576.23
2018-07-06T14:54:02.116Z,101572.27
2018-07-06T14:56:31.999Z,101581.53
2018-07-06T14:59:01.395Z,101586.91
2018-07-06T15:01:30.952Z,101592.85
2018-07-06T15:04:00.649Z,101594.20
2018-07-06T15:06:30.293Z,101590.66
2018-07-06T15:08:59.805Z,101593.23
2018-07-06T15:11:29.289Z,101587.75
2018-07-06T15:13:58.753Z,101585.69
2018-07-06T15:16:28.367Z,101590.33
2018-07-06T15:18:57.929Z,101590.31
2018-07-06T15:21:27.193Z,101603.20
2018-07-06T15:23:56.694Z,101607.76
2018-07-06T15:26:26.314Z,101604.16
2018-07-06T15:28:56.858Z,101605.52
2018-07-06T15:31:26.695Z,101610.16
2018-07-06T15:33:56.777Z,101607.30
2018-07-06T15:36:26.530Z,101606.30
2018-07-06T15:38:55.910Z,101607.59
2018-07-06T15:41:25.373Z,101619.58
2018-07-06T15:43:54.978Z,101619.95
2018-07-06T15:46:24.508Z,101628.72
2018-07-06T15:48:53.960Z,101628.20
2018-07-06T15:51:23.219Z,101622.59
2018-07-06T15:53:52.798Z,101617.84
2018-07-06T15:56:23.155Z,101622.27
2018-07-06T15:58:52.660Z,101627.33
2018-07-06T16:01:22.135Z,101615.63
2018-07-06T16:03:51.709Z,101625.38
2018-07-06T16:06:20.868Z,101627.57
2018-07-06T16:08:50.394Z,101616.67
2018-07-06T16:11:19.996Z,101618.72
2018-07-06T16:13:49.684Z,101619.15
2018-07-06T16:16:19.204Z,101617.73
2018-07-06T16:18:49.032Z,101624.41
2018-07-06T16:21:18.478Z,101624.22
2018-07-06T16:23:48.172Z,101629.91
2018-07-06T16:26:17.545Z,101623.64
2018-07-06T16:28:47.114Z,101632.03
2018-07-06T16:31:18.676Z,101635.90
2018-07-06T16:33:48.276Z,101630.03
2018-07-06T16:36:19.057Z,101633.61
2018-07-06T16:38:53.855Z,101628.68
2018-07-06T16:41:23.448Z,101625.89
2018-07-06T16:43:54.007Z,101624.64
2018-07-06T16:46:23.811Z,101620.68
2018-07-06T16:48:53.438Z,101623.29
2018-07-06T16:51:23.373Z,101626.02
2018-07-06T16:53:53.057Z,101631.80
2018-07-06T16:56:22.893Z,101638.65
2018-07-06T16:58:52.962Z,101633.73
2018-07-06T17:01:22.528Z,101637.41
2018-07-06T17:03:52.322Z,101641.59
2018-07-06T17:06:23.577Z,101638.82
2018-07-06T17:08:53.029Z,101636.16
2018-07-06T17:11:22.648Z,101638.70
2018-07-06T17:13:52.258Z,101642.17
2018-07-06T17:16:21.854Z,101635.02
2018-07-06T17:18:51.471Z,101640.26
2018-07-06T17:21:20.888Z,101646.71
2018-07-06T17:23:50.408Z,101637.05
2018-07-06T17:26:20.542Z,101651.05
2018-07-06T17:28:50.050Z,101650.22
2018-07-06T17:31:19.639Z,101656.63
2018-07-06T17:33:49.236Z,101647.75
2018-07-06T17:36:18.770Z,101650.07
2018-07-06T17:38:48.325Z,101654.80
2018-07-06T17:41:17.853Z,101660.05
2018-07-06T17:43:47.550Z,101656.53
2018-07-06T17:46:17.215Z,101654.52
2018-07-06T17:48:47.297Z,101658.75
2018-07-06T17:51:16.842Z,101658.33
2018-07-06T17:53:46.362Z,101657.20
2018-07-06T17:56:15.875Z,101664.27
2018-07-06T17:58:45.849Z,101664.05
2018-07-06T18:01:15.474Z,101673.38
2018-07-06T18:03:44.993Z,101669.91
2018-07-06T18:06:15.437Z,101671.45
2018-07-06T18:08:44.930Z,101678.20
2018-07-06T18:11:14.639Z,101682.86
2018-07-06T18:13:44.275Z,101681.54
2018-07-06T18:16:14.218Z,101675.62
2018-07-06T18:18:43.742Z,101681.55
2018-07-06T18:21:13.246Z,101675.67
2018-07-06T18:23:42.827Z,101683.30
2018-07-06T18:26:12.322Z,101681.75
2018-07-06T18:28:41.453Z,101680.54
2018-07-06T18:31:10.990Z,101678.48
2018-07-06T18:33:40.677Z,101680.69
2018-07-06T18:36:10.225Z,101673.52
2018-07-06T18:38:40.034Z,101686.12
2018-07-06T18:41:09.674Z,101682.45
2018-07-06T18:43:39.185Z,101688.34
2018-07-06T18:46:09.319Z,101679.12
2018-07-06T18:48:38.846Z,101677.87
2018-07-06T18:51:08.657Z,101678.74
2018-07-06T18:53:39.006Z,101680.86
2018-07-06T18:56:09.115Z,101679.60
2018-07-06T18:58:39.354Z,101680.02
2018-07-06T19:01:09.542Z,101680.87
2018-07-06T19:03:39.220Z,101696.39
2018-07-06T19:06:08.884Z,101688.42
2018-07-06T19:08:38.328Z,101695.16
2018-07-06T19:11:07.655Z,101701.03
2018-07-06T19:13:37.098Z,101700.64
2018-07-06T19:16:06.707Z,101699.37
2018-07-06T19:18:36.345Z,101706.50
2018-07-06T19:21:05.507Z,101703.16
2018-07-06T19:23:34.938Z,101717.83
2018-07-06T19:26:04.599Z,101719.50
2018-07-06T19:28:34.151Z,101725.80
2018-07-06T19:31:04.665Z,101721.19
2018-07-06T19:33:34.157Z,101717.00
2018-07-06T19:36:04.288Z,101720.34
2018-07-06T19:38:33.833Z,101718.66
2018-07-06T19:41:03.424Z,101723.28
2018-07-06T19:43:34.024Z,101725.81
2018-07-06T19:46:03.562Z,101735.03
2018-07-06T19:48:33.466Z,101733.34
2018-07-06T19:51:03.853Z,101732.92
2018-07-06T19:53:33.649Z,101735.01
2018-07-06T19:56:03.278Z,101737.12
2018-07-06T19:58:33.714Z,101740.48
2018-07-06T20:01:03.234Z,101740.44
2018-07-06T20:03:32.890Z,101740.00
2018-07-06T20:06:02.477Z,101748.78
2018-07-06T20:08:31.989Z,101747.57
2018-07-06T20:11:01.575Z,101753.81
2018-07-06T20:13:31.393Z,101752.15
2018-07-06T20:16:00.891Z,101753.36
2018-07-06T20:18:30.813Z,101752.52
2018-07-06T20:21:00.664Z,101751.26
2018-07-06T20:23:30.898Z,101752.89
2018-07-06T20:26:00.651Z,101756.27
2018-07-06T20:28:30.188Z,101758.78
2018-07-06T20:30:59.717Z,101758.33
2018-07-06T20:33:29.136Z,101754.57
2018-07-06T20:35:58.664Z,101752.89
2018-07-06T20:38:28.270Z,101757.48
2018-07-06T20:40:57.797Z,101760.79
2018-07-06T20:43:27.254Z,101758.69
2018-07-06T20:45:56.514Z,101762.86
2018-07-06T20:48:26.101Z,101764.11
2018-07-06T20:50:55.624Z,101759.90
2018-07-06T20:53:26.113Z,101761.14
2018-07-06T20:55:55.881Z,101760.70
2018-07-06T20:58:25.372Z,101764.48
2018-07-06T21:00:55.702Z,101751.05
2018-07-06T21:03:25.300Z,101765.26
2018-07-06T21:05:54.844Z,101760.30
2018-07-06T21:08:24.392Z,101761.03
2018-07-06T21:10:54.548Z,101761.42
2018-07-06T21:13:25.093Z,101764.39
2018-07-06T21:15:54.561Z,101763.06
2018-07-06T21:18:24.595Z,101755.56
2018-07-06T21:20:54.285Z,101759.27
2018-07-06T21:23:23.814Z,101765.13
2018-07-06T21:25:53.338Z,101757.97
2018-07-06T21:28:23.009Z,101762.54
2018-07-06T21:30:52.569Z,101763.41
2018-07-06T21:33:22.051Z,101757.95
2018-07-06T21:35:51.507Z,101759.94
2018-07-06T21:38:21.369Z,101757.00
2018-07-06T21:40:50.890Z,101762.43
2018-07-06T21:43:20.370Z,101766.61
2018-07-06T21:45:49.868Z,101769.15
2018-07-06T21:48:19.407Z,101766.13
2018-07-06T21:50:49.011Z,101758.63
2018-07-06T21:53:19.020Z,101759.03
2018-07-06T21:55:48.624Z,101757.36
2018-07-06T21:58:18.360Z,101760.67
2018-07-06T22:00:48.637Z,101756.09
2018-07-06T22:03:18.203Z,101759.85
2018-07-06T22:05:47.805Z,101761.92
2018-07-06T22:08:17.328Z,101758.59
2018-07-06T22:10:47.596Z,101763.56
2018-07-06T22:13:17.138Z,101764.00
2018-07-06T22:15:47.669Z,101766.05
2018-07-06T22:18:18.615Z,101760.59
2018-07-06T22:20:50.680Z,101761.47
2018-07-06T22:23:20.164Z,101763.13
2018-07-06T22:25:49.789Z,101766.89
2018-07-06T22:28:19.280Z,101761.47
2018-07-06T22:30:48.806Z,101767.31
2018-07-06T22:33:18.789Z,101758.93
2018-07-06T22:35:48.274Z,101761.02
2018-07-06T22:38:17.785Z,101762.27
2018-07-06T22:40:47.458Z,101762.23
2018-07-06T22:43:17.176Z,101760.95
2018-07-06T22:45:46.964Z,101759.64
2018-07-06T22:48:17.011Z,101761.77
2018-07-06T22:50:46.275Z,101758.86
2018-07-06T22:53:16.438Z,101760.47
2018-07-06T22:55:46.094Z,101757.14
2018-07-06T22:58:15.596Z,101763.88
2018-07-06T23:00:45.129Z,101764.31
2018-07-06T23:03:15.389Z,101763.00
2018-07-06T23:05:45.786Z,101769.73
2018-07-06T23:08:15.242Z,101768.02
2018-07-06T23:10:44.769Z,101771.41
2018-07-06T23:13:14.300Z,101770.14
2018-07-06T23:15:43.905Z,101771.81
2018-07-06T23:18:13.536Z,101769.33
2018-07-06T23:20:42.710Z,101775.63
2018-07-06T23:23:13.336Z,101772.27
2018-07-06T23:25:45.104Z,101772.68
2018-07-06T23:28:17.062Z,101778.14
2018-07-06T23:30:47.201Z,101767.25
2018-07-06T23:33:16.716Z,101772.68
2018-07-06T23:35:46.177Z,101771.84
2018-07-06T23:38:16.854Z,101769.33
2018-07-06T23:40:46.318Z,101766.80
2018-07-06T23:43:16.854Z,101772.56
2018-07-06T23:45:46.362Z,101772.19
2018-07-06T23:48:15.896Z,101774.73
2018-07-06T23:50:45.416Z,101773.86
2018-07-06T23:53:15.188Z,101778.48
2018-07-06T23:55:44.786Z,101773.85
2018-07-06T23:58:14.325Z,101773.83
